Time;durP1;ratioP1;P1;durP2;ratioP2;P2;SDS_P1;SDS_P2;PMS_P1;PMS_P2;Temp;Humidity;BMP_temperature;BMP_pressure;BME280_temperature;BME280_humidity;BME280_pressure;Samples;Min_cycle;Max_cycle;Signal;HPM_P1;HPM_P2
2022/10/10 00:00:25;;;;;;;5.68;2.38;;;;;;;-143.85;100.00;70650.75;4957250;29;20046;-86
2022/10/10 00:02:50;;;;;;;6.70;3.03;;;;;;;-143.85;100.00;70650.75;4940212;29;20055;-87
2022/10/10 00:05:15;;;;;;;3.20;2.17;;;;;;;-143.85;100.00;70650.75;4940210;29;20034;-89
2022/10/10 00:07:41;;;;;;;8.30;3.20;;;;;;;-143.85;100.00;70650.75;4940218;29;20480;-88
2022/10/10 00:10:07;;;;;;;5.22;2.45;;;;;;;-143.85;100.00;70650.75;4940253;29;20036;-88
2022/10/10 00:12:32;;;;;;;5.45;3.45;;;;;;;-143.85;100.00;70650.75;4939774;29;20038;-88
2022/10/10 00:14:58;;;;;;;7.20;3.17;;;;;;;-143.85;100.00;70650.75;4940158;29;20031;-88
2022/10/10 00:17:23;;;;;;;4.85;3.45;;;;;;;-143.85;100.00;70650.75;4939901;29;20110;-88
2022/10/10 00:19:49;;;;;;;7.28;3.58;;;;;;;-143.85;100.00;70650.75;4939907;29;20059;-88
2022/10/10 00:22:14;;;;;;;4.43;2.65;;;;;;;-143.85;100.00;70650.75;4939689;29;20042;-88
2022/10/10 00:24:40;;;;;;;6.32;2.75;;;;;;;-143.85;100.00;70650.75;4938897;29;20086;-88
2022/10/10 00:27:05;;;;;;;6.60;4.03;;;;;;;-143.85;100.00;70650.75;4939123;29;20061;-88
2022/10/10 00:29:31;;;;;;;3.03;2.75;;;;;;;-143.85;100.00;70650.75;4939674;29;20538;-88
2022/10/10 00:31:56;;;;;;;8.20;3.35;;;;;;;-143.85;100.00;70650.75;4939755;29;20087;-85
2022/10/10 00:34:21;;;;;;;12.18;3.08;;;;;;;-143.85;100.00;70650.75;4939758;29;20027;-86
2022/10/10 00:36:47;;;;;;;5.72;3.33;;;;;;;-143.85;100.00;70650.75;4939464;29;20130;-87
2022/10/10 00:39:12;;;;;;;5.43;2.70;;;;;;;-143.85;100.00;70650.75;4939771;29;20102;-86
2022/10/10 00:41:38;;;;;;;4.90;3.25;;;;;;;-143.85;100.00;70650.75;4939564;29;20027;-87
2022/10/10 00:44:10;;;;;;;5.53;3.33;;;;;;;-143.85;100.00;70650.75;4926089;29;20518;-86
2022/10/10 00:46:36;;;;;;;7.53;3.40;;;;;;;-143.85;100.00;70650.75;4939536;29;20130;-87
2022/10/10 00:49:04;;;;;;;6.07;3.63;;;;;;;-143.85;100.00;70650.75;4939069;29;20071;-87
2022/10/10 00:51:29;;;;;;;9.18;3.72;;;;;;;-143.85;100.00;70650.75;4939195;29;20415;-86
2022/10/10 00:54:06;;;;;;;4.93;3.13;;;;;;;-143.85;100.00;70650.75;4939203;29;20035;-87
2022/10/10 00:56:47;;;;;;;5.55;3.35;;;;;;;-143.85;100.00;70650.75;4938782;29;20114;-84
2022/10/10 00:59:14;;;;;;;2.80;2.28;;;;;;;-143.85;100.00;70650.75;4934128;29;20186;-85
2022/10/10 01:01:40;;;;;;;3.22;2.90;;;;;;;-143.85;100.00;70650.75;4932633;29;20118;-85
2022/10/10 01:04:26;;;;;;;6.07;3.22;;;;;;;-143.85;100.00;70650.75;4939066;29;20113;-86
2022/10/10 01:06:51;;;;;;;4.78;3.55;;;;;;;-143.85;100.00;70650.75;4935628;29;20035;-86
2022/10/10 01:09:17;;;;;;;5.68;2.60;;;;;;;-143.85;100.00;70650.75;4928102;29;20033;-86
2022/10/10 01:11:59;;;;;;;5.25;2.97;;;;;;;-143.85;100.00;70650.75;4938431;29;20031;-86
2022/10/10 01:14:55;;;;;;;5.10;2.78;;;;;;;-143.85;100.00;70650.75;4939016;29;20090;-85
2022/10/10 01:17:44;;;;;;;5.13;2.58;;;;;;;-143.85;100.00;70650.75;4955680;29;20039;-86
2022/10/10 01:20:20;;;;;;;4.07;2.58;;;;;;;-143.85;100.00;70650.75;4938456;29;20480;-85
2022/10/10 01:23:04;;;;;;;5.18;2.58;;;;;;;-143.85;100.00;70650.75;4936387;29;20035;-86
2022/10/10 01:25:39;;;;;;;6.68;3.13;;;;;;;-143.85;100.00;70650.75;4925555;29;20086;-86
2022/10/10 01:28:23;;;;;;;4.35;2.88;;;;;;;-143.85;100.00;70650.75;4953169;29;20027;-85
2022/10/10 01:30:48;;;;;;;4.22;2.95;;;;;;;-143.85;100.00;70650.75;4944230;29;20027;-85
2022/10/10 01:33:19;;;;;;;7.03;3.45;;;;;;;-143.85;100.00;70650.75;4938474;29;20089;-86
2022/10/10 01:35:57;;;;;;;2.90;2.55;;;;;;;-143.85;100.00;70650.75;4938694;29;20035;-85
2022/10/10 01:38:52;;;;;;;5.50;3.38;;;;;;;-143.85;100.00;70650.75;4937381;29;20110;-85
2022/10/10 01:41:31;;;;;;;4.50;2.85;;;;;;;-143.85;100.00;70650.75;4925420;29;20518;-85
2022/10/10 01:43:58;;;;;;;3.55;3.05;;;;;;;-143.85;100.00;70650.75;4924486;29;20028;-84
2022/10/10 01:46:24;;;;;;;4.55;2.30;;;;;;;-143.85;100.00;70650.75;4933340;29;20031;-86
2022/10/10 01:48:53;;;;;;;4.55;2.65;;;;;;;-143.85;100.00;70650.75;4938432;29;20031;-86
2022/10/10 01:51:52;;;;;;;4.68;2.95;;;;;;;-143.85;100.00;70650.75;4954692;28;20508;-86
2022/10/10 01:54:39;;;;;;;3.85;2.85;;;;;;;-143.85;100.00;70650.75;4937303;28;20035;-86
2022/10/10 01:57:18;;;;;;;3.83;2.45;;;;;;;-143.85;100.00;70650.75;4933817;29;20027;-85
2022/10/10 02:00:07;;;;;;;4.93;3.25;;;;;;;-143.85;100.00;70650.75;4933325;29;20111;-85
2022/10/10 02:02:52;;;;;;;6.07;2.70;;;;;;;-143.85;100.00;70650.75;4936710;29;20031;-85
2022/10/10 02:05:43;;;;;;;3.35;2.28;;;;;;;-143.85;100.00;70650.75;4933875;29;20023;-85
2022/10/10 02:08:13;;;;;;;3.97;2.58;;;;;;;-143.85;100.00;70650.75;4933208;29;20122;-85
2022/10/10 02:10:45;;;;;;;3.10;2.38;;;;;;;-143.85;100.00;70650.75;4937893;29;20027;-85
2022/10/10 02:13:12;;;;;;;5.15;3.83;;;;;;;-143.85;100.00;70650.75;4937580;29;20455;-85
2022/10/10 02:15:43;;;;;;;7.28;3.80;;;;;;;-143.85;100.00;70650.75;4936084;29;20122;-84
2022/10/10 02:18:13;;;;;;;4.95;3.10;;;;;;;-143.85;100.00;70650.75;4945826;29;20460;-85
2022/10/10 02:20:42;;;;;;;6.68;2.72;;;;;;;-143.85;100.00;70650.75;4942821;29;20031;-85
2022/10/10 02:23:11;;;;;;;4.90;3.58;;;;;;;-143.85;100.00;70650.75;4932826;28;20098;-85
2022/10/10 02:25:40;;;;;;;9.82;3.60;;;;;;;-143.85;100.00;70650.75;4937983;29;20016;-85
2022/10/10 02:28:32;;;;;;;5.85;3.08;;;;;;;-143.85;100.00;70650.75;4931908;29;20042;-84
2022/10/10 02:31:04;;;;;;;4.82;3.22;;;;;;;-143.85;100.00;70650.75;4933382;29;20027;-88
2022/10/10 02:33:43;;;;;;;5.05;3.47;;;;;;;-143.85;100.00;70650.75;4954704;29;20031;-87
2022/10/10 02:36:09;;;;;;;7.15;4.35;;;;;;;-143.85;100.00;70650.75;4938133;29;20031;-87
2022/10/10 02:38:36;;;;;;;6.55;2.97;;;;;;;-143.85;100.00;70650.75;4936687;29;20039;-87
2022/10/10 02:41:04;;;;;;;8.93;3.58;;;;;;;-143.85;100.00;70650.75;4950623;28;20020;-87
2022/10/10 02:43:33;;;;;;;8.88;4.53;;;;;;;-143.85;100.00;70650.75;4937671;29;20033;-87
2022/10/10 02:46:06;;;;;;;7.70;3.55;;;;;;;-143.85;100.00;70650.75;4954736;29;20034;-87
2022/10/10 02:48:31;;;;;;;7.72;2.70;;;;;;;-143.85;100.00;70650.75;4933746;29;20050;-87
2022/10/10 02:50:57;;;;;;;6.63;4.93;;;;;;;-143.85;100.00;70650.75;4939404;29;20491;-87
2022/10/10 02:53:22;;;;;;;4.80;3.03;;;;;;;-143.85;100.00;70650.75;4941338;29;20038;-87
2022/10/10 02:55:48;;;;;;;3.03;2.53;;;;;;;-143.85;100.00;70650.75;4941132;29;20054;-87
2022/10/10 02:58:13;;;;;;;4.95;3.10;;;;;;;-143.85;100.00;70650.75;4940321;29;20402;-86
2022/10/10 03:00:39;;;;;;;3.38;2.42;;;;;;;-143.85;100.00;70650.75;4957884;28;20027;-87
2022/10/10 03:03:05;;;;;;;4.78;2.97;;;;;;;-143.85;100.00;70650.75;4957987;29;20031;-86
2022/10/10 03:05:30;;;;;;;4.00;2.85;;;;;;;-143.85;100.00;70650.75;4931879;29;20035;-86
2022/10/10 03:07:56;;;;;;;3.38;2.13;;;;;;;-143.85;100.00;70650.75;4937682;29;20035;-87
2022/10/10 03:10:21;;;;;;;2.78;1.80;;;;;;;-143.85;100.00;70650.75;4958406;29;20039;-85
2022/10/10 03:12:47;;;;;;;5.18;3.20;;;;;;;-143.85;100.00;70650.75;4958334;29;20039;-86
2022/10/10 03:15:12;;;;;;;6.03;3.08;;;;;;;-143.85;100.00;70650.75;4940872;29;20027;-86
2022/10/10 03:17:38;;;;;;;3.55;2.75;;;;;;;-143.85;100.00;70650.75;4941410;29;20035;-85
2022/10/10 03:20:04;;;;;;;8.70;2.58;;;;;;;-143.85;100.00;70650.75;4940118;29;20129;-86
2022/10/10 03:22:29;;;;;;;3.15;2.40;;;;;;;-143.85;100.00;70650.75;4936585;29;20020;-86
2022/10/10 03:24:55;;;;;;;3.17;2.65;;;;;;;-143.85;100.00;70650.75;4939860;29;20041;-86
2022/10/10 03:27:20;;;;;;;3.75;2.58;;;;;;;-143.85;100.00;70650.75;4940625;29;20027;-85
2022/10/10 03:29:46;;;;;;;3.58;2.15;;;;;;;-143.85;100.00;70650.75;4940568;29;20031;-85
2022/10/10 03:32:11;;;;;;;3.65;2.47;;;;;;;-143.85;100.00;70650.75;4940180;29;20027;-85
2022/10/10 03:34:37;;;;;;;9.30;3.55;;;;;;;-143.85;100.00;70650.75;4929801;29;20472;-85
2022/10/10 03:37:02;;;;;;;3.55;2.42;;;;;;;-143.85;100.00;70650.75;4938007;29;20090;-86
2022/10/10 03:39:27;;;;;;;4.25;2.38;;;;;;;-143.85;100.00;70650.75;4940553;29;20028;-85
2022/10/10 03:41:53;;;;;;;5.47;2.80;;;;;;;-143.85;100.00;70650.75;4936922;29;20110;-85
2022/10/10 03:44:18;;;;;;;3.45;2.30;;;;;;;-143.85;100.00;70650.75;4943383;29;20035;-86
2022/10/10 03:46:44;;;;;;;6.30;2.92;;;;;;;-143.85;100.00;70650.75;4940430;29;20028;-85
2022/10/10 03:49:09;;;;;;;8.70;2.60;;;;;;;-143.85;100.00;70650.75;4940032;29;20027;-86
2022/10/10 03:51:35;;;;;;;4.55;2.78;;;;;;;-143.85;100.00;70650.75;4958243;29;20442;-85
2022/10/10 03:54:00;;;;;;;4.50;2.92;;;;;;;-143.85;100.00;70650.75;4934824;29;20468;-85
2022/10/10 03:56:26;;;;;;;3.83;2.35;;;;;;;-143.85;100.00;70650.75;4957281;28;20093;-85
2022/10/10 03:58:51;;;;;;;4.25;2.30;;;;;;;-143.85;100.00;70650.75;4940130;29;20026;-86
2022/10/10 04:01:16;;;;;;;4.88;2.75;;;;;;;-143.85;100.00;70650.75;4956140;28;20035;-87
2022/10/10 04:03:42;;;;;;;3.92;2.45;;;;;;;-143.85;100.00;70650.75;4956670;29;20030;-87
2022/10/10 04:06:07;;;;;;;4.00;2.67;;;;;;;-143.85;100.00;70650.75;4940217;29;20035;-86
2022/10/10 04:08:33;;;;;;;5.85;2.60;;;;;;;-143.85;100.00;70650.75;4940116;29;20027;-87
2022/10/10 04:10:58;;;;;;;6.68;3.30;;;;;;;-143.85;100.00;70650.75;4940188;29;20039;-87
2022/10/10 04:13:24;;;;;;;4.82;3.08;;;;;;;-143.85;100.00;70650.75;4940150;29;20023;-86
2022/10/10 04:15:51;;;;;;;5.28;3.05;;;;;;;-143.85;100.00;70650.75;4957244;29;20376;-86
2022/10/10 04:18:18;;;;;;;3.22;1.75;;;;;;;-143.85;100.00;70650.75;4940013;29;20406;-86
2022/10/10 04:20:43;;;;;;;4.25;2.53;;;;;;;-143.85;100.00;70650.75;4939987;29;20035;-87
2022/10/10 04:23:08;;;;;;;5.50;2.47;;;;;;;-143.85;100.00;70650.75;4939833;29;20455;-86
2022/10/10 04:25:34;;;;;;;7.25;2.20;;;;;;;-143.85;100.00;70650.75;4939945;29;20392;-86
2022/10/10 04:27:59;;;;;;;4.68;2.70;;;;;;;-143.85;100.00;70650.75;4939855;29;20039;-87
2022/10/10 04:30:25;;;;;;;3.05;1.98;;;;;;;-143.85;100.00;70650.75;4939692;29;20059;-86
2022/10/10 04:32:50;;;;;;;2.53;2.33;;;;;;;-143.85;100.00;70650.75;4940029;29;20019;-87
2022/10/10 04:35:16;;;;;;;9.07;2.05;;;;;;;-143.85;100.00;70650.75;4939670;29;20039;-87
2022/10/10 04:37:41;;;;;;;6.57;2.25;;;;;;;-143.85;100.00;70650.75;4939310;29;20031;-84
2022/10/10 04:40:07;;;;;;;3.42;2.50;;;;;;;-143.85;100.00;70650.75;4939139;29;20058;-84
2022/10/10 04:42:32;;;;;;;7.43;2.97;;;;;;;-143.85;100.00;70650.75;4938643;29;20063;-81
2022/10/10 04:44:58;;;;;;;5.82;3.35;;;;;;;-143.85;100.00;70650.75;4936445;29;20042;-85
2022/10/10 04:47:24;;;;;;;6.97;3.03;;;;;;;-143.85;100.00;70650.75;4948514;29;20055;-84
2022/10/10 04:49:49;;;;;;;4.30;3.13;;;;;;;-143.85;100.00;70650.75;4930606;29;20048;-88
2022/10/10 04:52:15;;;;;;;10.95;2.60;;;;;;;-143.85;100.00;70650.75;4927464;29;20086;-87
2022/10/10 04:54:41;;;;;;;5.82;4.20;;;;;;;-143.85;100.00;70650.75;4951483;29;20407;-83
2022/10/10 04:57:07;;;;;;;4.55;2.83;;;;;;;-143.85;100.00;70650.75;4930423;29;20044;-84
2022/10/10 04:59:33;;;;;;;7.32;3.30;;;;;;;-143.85;100.00;70650.75;4933127;29;20503;-81
2022/10/10 05:01:58;;;;;;;19.35;2.58;;;;;;;-143.85;100.00;70650.75;4938638;29;20031;-83
2022/10/10 05:04:24;;;;;;;4.03;2.42;;;;;;;-143.85;100.00;70650.75;4954263;29;20054;-83
2022/10/10 05:06:50;;;;;;;3.13;2.40;;;;;;;-143.85;100.00;70650.75;4936218;29;20034;-85
2022/10/10 05:09:15;;;;;;;5.07;2.17;;;;;;;-143.85;100.00;70650.75;4955791;29;20039;-82
2022/10/10 05:11:41;;;;;;;2.65;2.30;;;;;;;-143.85;100.00;70650.75;4930146;29;20023;-84
2022/10/10 05:14:06;;;;;;;9.88;2.30;;;;;;;-143.85;100.00;70650.75;4927397;29;20486;-81
2022/10/10 05:16:32;;;;;;;6.80;3.05;;;;;;;-143.85;100.00;70650.75;4938024;29;20452;-86
2022/10/10 05:18:57;;;;;;;5.88;2.97;;;;;;;-143.85;100.00;70650.75;4938436;29;20031;-84
2022/10/10 05:21:23;;;;;;;5.07;3.28;;;;;;;-143.85;100.00;70650.75;4938775;29;20495;-84
2022/10/10 05:23:49;;;;;;;6.10;3.15;;;;;;;-143.85;100.00;70650.75;4954624;28;20031;-84
2022/10/10 05:26:14;;;;;;;6.10;2.50;;;;;;;-143.85;100.00;70650.75;4933293;28;20027;-83
2022/10/10 05:28:40;;;;;;;5.03;2.00;;;;;;;-143.85;100.00;70650.75;4948403;29;20094;-83
2022/10/10 05:31:10;;;;;;;4.88;3.03;;;;;;;-143.85;100.00;70650.75;4938273;29;20110;-84
